createdAt,value
2022-09-07T00:00:13.541Z,2.25
2022-09-07T00:02:50.082Z,2.22
2022-09-07T00:05:24.562Z,2.10
2022-09-07T00:07:52.035Z,1.88
2022-09-07T00:10:19.571Z,1.70
2022-09-07T00:12:53.550Z,2.10
2022-09-07T00:15:21.138Z,2.00
2022-09-07T00:17:48.615Z,2.10
2022-09-07T00:20:24.570Z,1.73
2022-09-07T00:22:52.102Z,2.20
2022-09-07T00:25:19.570Z,1.95
2022-09-07T00:27:55.542Z,2.10
2022-09-07T00:30:22.961Z,1.90
2022-09-07T00:33:03.569Z,2.00
2022-09-07T00:35:31.031Z,2.20
2022-09-07T00:37:59.846Z,2.00
2022-09-07T00:40:33.598Z,2.17
2022-09-07T00:43:01.368Z,2.17
2022-09-07T00:45:28.827Z,2.13
2022-09-07T00:48:11.576Z,2.25
2022-09-07T00:50:57.219Z,2.13
2022-09-07T00:53:39.658Z,2.25
2022-09-07T00:56:08.706Z,2.58
2022-09-07T00:58:46.521Z,2.63
2022-09-07T01:01:14.682Z,2.55
2022-09-07T01:03:45.479Z,2.30
2022-09-07T01:06:26.607Z,2.53
2022-09-07T01:09:01.562Z,2.10
2022-09-07T01:11:37.564Z,2.10
2022-09-07T01:14:10.595Z,2.53
2022-09-07T01:17:08.609Z,2.13
2022-09-07T01:20:04.034Z,2.15
2022-09-07T01:23:02.576Z,2.50
2022-09-07T01:25:55.725Z,2.55
2022-09-07T01:28:35.566Z,2.38
2022-09-07T01:31:32.762Z,2.58
2022-09-07T01:34:22.581Z,2.83
2022-09-07T01:37:32.237Z,2.28
2022-09-07T01:40:19.595Z,2.45
2022-09-07T01:43:04.581Z,2.50
2022-09-07T01:45:44.578Z,2.50
2022-09-07T01:48:15.820Z,2.40
2022-09-07T01:51:09.564Z,2.58
2022-09-07T01:53:43.857Z,2.38
2022-09-07T01:56:22.607Z,2.22
2022-09-07T01:59:00.709Z,1.95
2022-09-07T02:02:01.741Z,1.92
2022-09-07T02:04:39.243Z,2.45
2022-09-07T02:07:17.613Z,1.80
2022-09-07T02:10:07.946Z,1.80
2022-09-07T02:13:01.574Z,1.85
2022-09-07T02:15:53.891Z,2.00
2022-09-07T02:18:30.638Z,2.20
2022-09-07T02:21:01.545Z,2.28
2022-09-07T02:23:43.306Z,2.20
2022-09-07T02:26:21.010Z,2.10
2022-09-07T02:28:55.324Z,2.15
2022-09-07T02:31:30.412Z,2.50
2022-09-07T02:34:11.335Z,2.40
2022-09-07T02:36:45.006Z,2.67
2022-09-07T02:39:19.365Z,2.35
2022-09-07T02:41:48.964Z,2.22
2022-09-07T02:44:37.918Z,2.28
2022-09-07T02:47:29.806Z,2.60
2022-09-07T02:50:03.951Z,2.20
2022-09-07T02:52:56.042Z,2.30
2022-09-07T02:56:01.912Z,2.38
2022-09-07T02:58:53.580Z,2.67
2022-09-07T03:02:13.966Z,2.53
2022-09-07T03:05:02.871Z,2.70
2022-09-07T03:07:45.934Z,2.38
2022-09-07T03:10:14.799Z,2.58
2022-09-07T03:12:53.913Z,2.50
2022-09-07T03:15:25.005Z,2.45
2022-09-07T03:17:53.529Z,3.33
2022-09-07T03:20:28.923Z,2.95
2022-09-07T03:22:56.633Z,2.80
2022-09-07T03:25:24.183Z,3.15
2022-09-07T03:27:59.190Z,3.22
2022-09-07T03:30:27.086Z,3.03
2022-09-07T03:33:07.937Z,2.60
2022-09-07T03:35:35.782Z,2.53
2022-09-07T03:38:03.331Z,2.75
2022-09-07T03:40:36.913Z,2.80
2022-09-07T03:43:05.148Z,2.70
2022-09-07T03:45:32.632Z,3.15
2022-09-07T03:48:06.924Z,2.42
2022-09-07T03:50:35.946Z,2.72
2022-09-07T03:53:03.338Z,2.53
2022-09-07T03:55:37.957Z,2.63
2022-09-07T03:58:05.398Z,2.75
2022-09-07T04:00:34.541Z,2.72
2022-09-07T04:03:08.982Z,2.60
2022-09-07T04:05:36.451Z,2.42
2022-09-07T04:08:03.883Z,2.78
2022-09-07T04:10:42.972Z,2.70
2022-09-07T04:13:12.329Z,2.63
2022-09-07T04:15:39.737Z,2.90
2022-09-07T04:18:13.277Z,2.80
2022-09-07T04:20:40.664Z,2.75
2022-09-07T04:23:09.897Z,2.83
2022-09-07T04:25:53.323Z,2.33
2022-09-07T04:28:21.909Z,2.22
2022-09-07T04:30:49.547Z,2.40
2022-09-07T04:33:23.327Z,2.88
2022-09-07T04:35:52.648Z,2.67
2022-09-07T04:38:20.108Z,2.15
2022-09-07T04:40:55.704Z,2.70
2022-09-07T04:43:23.117Z,2.50
2022-09-07T04:45:50.572Z,2.80
2022-09-07T04:48:27.678Z,2.45
2022-09-07T04:51:05.783Z,2.45
2022-09-07T04:53:41.057Z,2.42
2022-09-07T04:56:16.332Z,2.75
2022-09-07T04:58:52.090Z,3.00
2022-09-07T05:01:22.202Z,2.10
2022-09-07T05:03:50.168Z,2.70
2022-09-07T05:06:26.302Z,2.60
2022-09-07T05:08:54.938Z,2.30
2022-09-07T05:11:33.114Z,2.35
2022-09-07T05:14:02.603Z,2.70
2022-09-07T05:16:32.444Z,2.30
2022-09-07T05:19:09.118Z,2.25
2022-09-07T05:21:36.552Z,2.55
2022-09-07T05:24:06.916Z,2.63
2022-09-07T05:26:43.834Z,2.47
2022-09-07T05:32:12.798Z,2.47
2022-09-07T05:34:50.866Z,2.00
2022-09-07T05:37:28.240Z,2.30
2022-09-07T05:39:57.101Z,2.45
2022-09-07T05:42:24.676Z,2.30
2022-09-07T05:44:59.271Z,2.47
2022-09-07T05:47:27.203Z,2.70
2022-09-07T05:49:57.098Z,2.42
2022-09-07T05:52:33.508Z,2.50
2022-09-07T05:55:19.248Z,2.58
2022-09-07T05:57:58.533Z,2.17
2022-09-07T06:00:26.034Z,2.47
2022-09-07T06:02:57.250Z,2.80
2022-09-07T06:05:31.503Z,2.30
2022-09-07T06:08:00.174Z,2.47
2022-09-07T06:13:10.388Z,2.45
2022-09-07T06:15:37.949Z,2.28
2022-09-07T06:18:14.822Z,2.42
2022-09-07T06:20:44.881Z,2.40
2022-09-07T06:23:12.451Z,2.40
2022-09-07T06:25:55.961Z,2.05
2022-09-07T06:28:37.003Z,2.40
2022-09-07T06:31:20.198Z,2.42
2022-09-07T06:33:55.780Z,2.60
2022-09-07T06:36:44.028Z,2.53
2022-09-07T06:39:11.903Z,2.30
2022-09-07T06:44:33.930Z,2.50
2022-09-07T06:49:29.073Z,2.35
2022-09-07T06:52:02.939Z,2.58
2022-09-07T06:57:40.160Z,2.50
2022-09-07T07:00:07.987Z,2.85
2022-09-07T07:02:35.604Z,3.00
2022-09-07T07:05:13.149Z,2.90
2022-09-07T07:07:40.668Z,2.67
2022-09-07T07:10:14.373Z,2.53
2022-09-07T07:12:48.066Z,2.40
2022-09-07T07:15:15.590Z,2.70
2022-09-07T07:17:43.797Z,2.20
2022-09-07T07:20:22.234Z,2.60
2022-09-07T07:22:56.436Z,2.65
2022-09-07T07:25:30.317Z,2.72
2022-09-07T07:30:54.233Z,2.72
2022-09-07T07:33:49.386Z,2.33
2022-09-07T07:36:30.248Z,2.30
2022-09-07T07:44:20.756Z,2.92
2022-09-07T07:46:58.284Z,2.53
2022-09-07T07:49:28.333Z,2.60
2022-09-07T07:54:51.248Z,2.53
2022-09-07T07:57:21.200Z,2.40
2022-09-07T07:59:48.658Z,2.58
2022-09-07T08:02:23.238Z,2.38
2022-09-07T08:04:53.340Z,2.47
2022-09-07T08:07:20.846Z,2.28
2022-09-07T08:10:07.293Z,2.20
2022-09-07T08:12:34.795Z,2.80
2022-09-07T08:15:04.818Z,2.10
2022-09-07T08:17:38.294Z,2.42
2022-09-07T08:20:13.114Z,2.60
2022-09-07T08:22:40.545Z,2.78
2022-09-07T08:25:14.563Z,2.40
2022-09-07T08:27:41.983Z,2.20
2022-09-07T08:30:10.818Z,2.67
2022-09-07T08:32:47.828Z,2.60
2022-09-07T08:35:21.918Z,2.30
2022-09-07T08:37:55.757Z,2.30
2022-09-07T08:40:23.168Z,2.15
2022-09-07T08:43:31.931Z,2.60
2022-09-07T08:46:06.513Z,2.20
2022-09-07T08:48:41.846Z,2.20
2022-09-07T08:51:24.401Z,2.20
2022-09-07T08:53:58.786Z,2.35
2022-09-07T08:56:37.659Z,2.25
2022-09-07T08:59:36.808Z,2.20
2022-09-07T09:06:11.770Z,2.25
2022-09-07T09:08:11.325Z,2.67
2022-09-07T09:11:06.802Z,2.15
2022-09-07T09:13:36.992Z,1.88
2022-09-07T09:16:42.759Z,2.50
2022-09-07T09:19:55.554Z,2.78
2022-09-07T09:22:33.262Z,2.28
2022-09-07T09:25:20.661Z,2.38
2022-09-07T09:27:59.214Z,2.60
2022-09-07T09:30:28.274Z,2.13
2022-09-07T09:33:35.566Z,2.38
2022-09-07T09:36:03.245Z,2.35
2022-09-07T09:38:50.487Z,2.20
2022-09-07T09:41:18.224Z,2.13
2022-09-07T09:44:21.991Z,2.15
2022-09-07T09:50:02.031Z,2.00
2022-09-07T09:52:41.754Z,1.83
2022-09-07T09:55:35.884Z,2.08
2022-09-07T10:01:33.557Z,1.95
2022-09-07T10:04:24.830Z,1.90
2022-09-07T10:07:09.100Z,1.88
2022-09-07T10:09:49.796Z,2.28
2022-09-07T10:12:37.037Z,2.13
2022-09-07T10:15:07.268Z,1.88
2022-09-07T10:17:47.617Z,1.90
2022-09-07T10:20:15.872Z,1.83
2022-09-07T10:22:59.281Z,1.90
2022-09-07T10:25:42.954Z,1.52
2022-09-07T10:28:17.214Z,1.95
2022-09-07T10:31:15.237Z,1.92
2022-09-07T10:37:14.705Z,2.05
2022-09-07T10:39:50.273Z,1.92
2022-09-07T10:42:29.110Z,2.28
2022-09-07T10:45:03.284Z,1.42
2022-09-07T10:48:02.733Z,1.83
2022-09-07T10:51:05.056Z,1.80
2022-09-07T10:57:15.230Z,1.88
2022-09-07T11:00:13.045Z,1.83
2022-09-07T11:06:18.386Z,1.85
2022-09-07T11:09:23.292Z,1.90
2022-09-07T11:12:04.388Z,1.90
2022-09-07T11:15:03.263Z,2.28
2022-09-07T11:17:37.939Z,1.95
2022-09-07T11:20:21.302Z,1.90
2022-09-07T11:22:55.714Z,1.90
2022-09-07T11:25:42.276Z,1.52
2022-09-07T11:28:17.717Z,1.88
2022-09-07T11:31:05.347Z,1.70
2022-09-07T11:34:23.911Z,1.77
2022-09-07T11:36:50.252Z,1.88
2022-09-07T11:39:24.514Z,1.83
2022-09-07T11:45:21.399Z,1.90
2022-09-07T11:48:07.556Z,1.50
2022-09-07T11:50:39.438Z,1.63
2022-09-07T11:53:23.603Z,1.67
2022-09-07T11:55:57.541Z,1.85
2022-09-07T11:58:47.366Z,1.45
2022-09-07T12:01:31.267Z,1.70
2022-09-07T12:04:31.435Z,1.85
2022-09-07T12:07:23.671Z,2.00
2022-09-07T12:10:19.440Z,1.90
2022-09-07T12:13:08.034Z,1.48
2022-09-07T12:15:42.439Z,1.55
2022-09-07T12:18:10.465Z,1.50
2022-09-07T12:20:49.321Z,1.50
2022-09-07T12:23:16.900Z,1.50
2022-09-07T12:25:49.093Z,1.63
2022-09-07T12:28:32.517Z,1.75
2022-09-07T12:31:04.590Z,2.22
2022-09-07T12:33:47.453Z,1.75
2022-09-07T12:36:27.685Z,1.65
2022-09-07T12:39:12.454Z,1.63
2022-09-07T12:41:47.415Z,1.58
2022-09-07T12:44:33.679Z,1.63
2022-09-07T12:47:28.510Z,1.33
2022-09-07T12:50:05.503Z,1.73
2022-09-07T12:52:50.166Z,1.75
2022-09-07T12:59:01.017Z,1.80
2022-09-07T13:01:41.893Z,1.45
2022-09-07T13:04:24.477Z,1.60
2022-09-07T13:07:36.837Z,1.48
2022-09-07T13:10:23.994Z,1.70
2022-09-07T13:12:59.514Z,1.35
2022-09-07T13:16:10.579Z,1.63
2022-09-07T13:18:48.302Z,1.70
2022-09-07T13:21:18.055Z,1.70
2022-09-07T13:27:34.667Z,1.80
2022-09-07T13:30:24.291Z,1.60
2022-09-07T13:33:18.503Z,1.73
2022-09-07T13:35:53.504Z,1.85
2022-09-07T13:38:21.777Z,1.80
2022-09-07T13:40:52.530Z,1.90
2022-09-07T13:43:32.541Z,1.73
2022-09-07T13:46:02.948Z,1.85
2022-09-07T13:48:48.445Z,1.70
2022-09-07T13:51:29.347Z,2.00
2022-09-07T13:54:23.006Z,1.95
2022-09-07T13:57:39.387Z,2.00
2022-09-07T14:00:21.870Z,1.92
2022-09-07T14:02:56.833Z,1.90
2022-09-07T14:05:32.070Z,2.10
2022-09-07T14:08:00.102Z,1.83
2022-09-07T14:10:28.405Z,1.92
2022-09-07T14:13:20.399Z,1.83
2022-09-07T14:15:50.634Z,2.00
2022-09-07T14:18:37.724Z,1.73
2022-09-07T14:21:08.392Z,1.95
2022-09-07T14:23:45.862Z,2.10
2022-09-07T14:26:19.256Z,1.98
2022-09-07T14:28:59.299Z,1.80
2022-09-07T14:31:27.315Z,2.30
2022-09-07T14:34:08.616Z,1.80
2022-09-07T14:36:45.649Z,2.10
2022-09-07T14:39:23.409Z,2.20
2022-09-07T14:41:51.365Z,2.15
2022-09-07T14:44:43.563Z,2.15
2022-09-07T14:47:26.436Z,2.10
2022-09-07T14:50:12.724Z,2.38
2022-09-07T14:53:33.618Z,2.28
2022-09-07T14:55:47.366Z,2.22
2022-09-07T14:58:15.194Z,2.20
2022-09-07T15:03:58.473Z,2.15
2022-09-07T15:07:01.385Z,1.80
2022-09-07T15:09:36.088Z,2.08
2022-09-07T15:12:38.879Z,2.10
2022-09-07T15:15:26.428Z,2.15
2022-09-07T15:18:07.792Z,2.22
2022-09-07T15:20:41.570Z,2.00
2022-09-07T15:23:24.697Z,2.65
2022-09-07T15:25:58.693Z,2.30
2022-09-07T15:31:49.733Z,2.28
2022-09-07T15:34:31.005Z,2.10
2022-09-07T15:37:00.850Z,2.13
2022-09-07T15:39:38.169Z,2.10
2022-09-07T15:45:01.959Z,2.20
2022-09-07T15:47:50.639Z,2.20
2022-09-07T15:50:23.389Z,2.17
2022-09-07T15:52:51.420Z,2.90
2022-09-07T15:55:19.038Z,2.50
2022-09-07T15:58:05.250Z,2.15
2022-09-07T16:00:37.408Z,2.25
2022-09-07T16:03:12.088Z,2.47
2022-09-07T16:05:44.315Z,2.40
2022-09-07T16:08:27.645Z,2.22
2022-09-07T16:10:56.454Z,2.15
2022-09-07T16:13:40.134Z,2.63
2022-09-07T16:16:08.080Z,2.20
2022-09-07T16:18:36.030Z,2.45
2022-09-07T16:21:19.157Z,2.45
2022-09-07T16:23:49.328Z,2.97
2022-09-07T16:26:26.146Z,2.60
2022-09-07T16:28:54.813Z,2.45
2022-09-07T16:31:26.395Z,2.33
2022-09-07T16:34:00.147Z,2.25
2022-09-07T16:36:27.738Z,2.22
2022-09-07T16:38:56.852Z,2.60
2022-09-07T16:41:34.153Z,2.40
2022-09-07T16:44:02.337Z,2.20
2022-09-07T16:46:31.005Z,2.60
2022-09-07T16:49:05.212Z,2.78
2022-09-07T16:51:33.191Z,2.13
2022-09-07T16:54:01.943Z,2.35
2022-09-07T16:56:39.245Z,2.05
2022-09-07T16:59:09.642Z,2.40
2022-09-07T17:01:45.173Z,2.50
2022-09-07T17:04:13.249Z,2.20
2022-09-07T17:06:41.169Z,2.10
2022-09-07T17:09:18.263Z,1.80
2022-09-07T17:11:45.693Z,1.92
2022-09-07T17:14:13.633Z,2.25
2022-09-07T17:16:48.214Z,1.90
2022-09-07T17:19:31.808Z,2.00
2022-09-07T17:22:09.174Z,1.90
2022-09-07T17:24:39.091Z,2.00
2022-09-07T17:27:06.581Z,1.60
2022-09-07T17:29:45.680Z,2.00
2022-09-07T17:32:28.662Z,2.00
2022-09-07T17:35:10.760Z,1.90
2022-09-07T17:37:40.013Z,1.90
2022-09-07T17:40:23.481Z,1.60
2022-09-07T17:45:49.448Z,1.92
2022-09-07T17:48:17.430Z,2.10
2022-09-07T17:50:44.854Z,2.00
2022-09-07T17:53:19.341Z,2.60
2022-09-07T17:55:46.741Z,2.35
2022-09-07T17:58:23.122Z,2.33
2022-09-07T18:00:57.338Z,2.08
2022-09-07T18:03:24.963Z,2.03
2022-09-07T18:05:55.895Z,2.40
2022-09-07T18:08:30.234Z,2.40
2022-09-07T18:14:06.454Z,2.50
2022-09-07T18:16:35.770Z,2.60
2022-09-07T18:19:14.411Z,2.58
2022-09-07T18:21:43.710Z,2.70
2022-09-07T18:24:29.388Z,2.58
2022-09-07T18:26:56.870Z,2.50
2022-09-07T18:29:29.970Z,2.65
2022-09-07T18:32:08.276Z,2.80
2022-09-07T18:34:48.266Z,2.40
2022-09-07T18:37:24.395Z,2.35
2022-09-07T18:39:52.050Z,2.38
2022-09-07T18:42:22.747Z,2.50
2022-09-07T18:47:46.594Z,2.53
2022-09-07T18:50:24.334Z,2.30
2022-09-07T18:52:53.064Z,2.65
2022-09-07T18:55:21.100Z,2.25
2022-09-07T18:57:55.714Z,2.22
2022-09-07T19:00:23.919Z,2.22
2022-09-07T19:02:51.384Z,2.08
2022-09-07T19:08:16.328Z,2.33
2022-09-07T19:10:50.362Z,2.33
2022-09-07T19:13:17.792Z,2.13
2022-09-07T19:15:45.239Z,2.40
2022-09-07T19:18:19.326Z,2.28
2022-09-07T19:20:46.894Z,2.13
2022-09-07T19:23:14.379Z,2.60
2022-09-07T19:25:48.363Z,2.33
2022-09-07T19:28:19.168Z,1.88
2022-09-07T19:30:46.635Z,1.92
2022-09-07T19:33:21.145Z,2.15
2022-09-07T19:35:48.958Z,2.03
2022-09-07T19:38:18.718Z,2.33
2022-09-07T19:41:00.807Z,2.50
2022-09-07T19:43:32.929Z,2.38
2022-09-07T19:46:07.884Z,2.20
2022-09-07T19:48:37.955Z,2.22
2022-09-07T19:51:07.942Z,2.65
2022-09-07T19:53:44.040Z,2.05
2022-09-07T19:56:16.809Z,1.95
2022-09-07T19:58:52.494Z,2.05
2022-09-07T20:01:22.813Z,2.05
2022-09-07T20:04:14.811Z,2.33
2022-09-07T20:06:46.518Z,1.80
2022-09-07T20:09:32.422Z,2.03
2022-09-07T20:12:01.852Z,1.90
2022-09-07T20:14:29.493Z,1.85
2022-09-07T20:17:03.412Z,1.70
2022-09-07T20:19:31.541Z,1.98
2022-09-07T20:22:01.254Z,2.30
2022-09-07T20:24:35.209Z,1.77
2022-09-07T20:27:03.459Z,2.10
2022-09-07T20:29:31.621Z,1.95
2022-09-07T20:32:07.291Z,2.10
2022-09-07T20:34:43.441Z,2.03
2022-09-07T20:37:24.545Z,2.00
2022-09-07T20:39:51.955Z,1.80
2022-09-07T20:42:19.733Z,2.33
2022-09-07T20:44:58.989Z,2.03
2022-09-07T20:47:29.204Z,2.03
2022-09-07T20:49:56.627Z,1.98
2022-09-07T20:52:32.099Z,1.92
2022-09-07T20:54:59.795Z,1.92
2022-09-07T20:57:27.494Z,1.90
2022-09-07T21:00:02.054Z,2.22
2022-09-07T21:02:29.685Z,2.03
2022-09-07T21:04:57.689Z,1.95
2022-09-07T21:07:31.998Z,2.50
2022-09-07T21:10:02.312Z,2.00
2022-09-07T21:12:39.953Z,2.00
2022-09-07T21:15:09.055Z,2.30
2022-09-07T21:17:36.707Z,2.20
2022-09-07T21:20:11.921Z,2.17
2022-09-07T21:22:39.467Z,1.77
2022-09-07T21:25:07.575Z,1.85
2022-09-07T21:27:43.967Z,1.90
2022-09-07T21:30:12.845Z,2.13
2022-09-07T21:32:40.507Z,2.28
2022-09-07T21:35:16.899Z,1.90
2022-09-07T21:37:51.094Z,2.17
2022-09-07T21:40:26.224Z,2.80
2022-09-07T21:42:54.215Z,2.28
2022-09-07T21:45:21.926Z,2.72
2022-09-07T21:47:55.944Z,2.70
2022-09-07T21:50:23.454Z,2.38
2022-09-07T21:52:50.939Z,2.67
2022-09-07T21:55:24.887Z,3.33
2022-09-07T21:57:53.129Z,2.85
2022-09-07T22:00:22.818Z,2.65
2022-09-07T22:02:57.885Z,3.50
2022-09-07T22:05:26.057Z,3.47
2022-09-07T22:07:53.481Z,3.30
2022-09-07T22:10:26.872Z,3.15
2022-09-07T22:12:55.569Z,3.22
2022-09-07T22:15:22.938Z,3.65
2022-09-07T22:18:01.870Z,3.42
2022-09-07T22:20:29.308Z,3.88
2022-09-07T22:22:56.747Z,3.92
2022-09-07T22:25:30.917Z,3.35
2022-09-07T22:27:59.342Z,3.50
2022-09-07T22:30:49.861Z,3.75
2022-09-07T22:33:24.052Z,4.00
2022-09-07T22:36:18.903Z,3.50
2022-09-07T22:38:48.409Z,3.63
2022-09-07T22:41:18.618Z,3.80
2022-09-07T22:44:11.887Z,3.85
2022-09-07T22:46:59.171Z,3.47
2022-09-07T22:49:33.958Z,3.53
2022-09-07T22:52:01.477Z,3.25
2022-09-07T22:54:28.922Z,3.80
2022-09-07T22:57:02.949Z,3.40
2022-09-07T22:59:30.973Z,3.40
2022-09-07T23:01:58.374Z,3.85
2022-09-07T23:04:32.188Z,3.60
2022-09-07T23:06:59.766Z,3.20
2022-09-07T23:09:27.295Z,3.38
2022-09-07T23:12:00.938Z,3.75
2022-09-07T23:14:28.469Z,3.53
2022-09-07T23:16:55.926Z,3.50
2022-09-07T23:19:29.915Z,3.22
2022-09-07T23:21:57.305Z,3.70
2022-09-07T23:24:24.685Z,3.83
2022-09-07T23:27:01.917Z,3.88
2022-09-07T23:29:29.402Z,3.72
2022-09-07T23:31:57.478Z,3.78
2022-09-07T23:34:35.517Z,3.75
2022-09-07T23:37:04.183Z,3.40
2022-09-07T23:39:32.068Z,3.65
2022-09-07T23:42:05.910Z,3.70
2022-09-07T23:44:33.933Z,4.18
2022-09-07T23:47:12.925Z,4.50
2022-09-07T23:49:40.542Z,4.30
2022-09-07T23:52:08.226Z,3.97
2022-09-07T23:54:41.915Z,3.88
2022-09-07T23:57:09.427Z,4.10
2022-09-07T23:59:36.805Z,3.80
